sensor_id;sensor_type;location;lat;lon;timestamp;P1;durP1;ratioP1;P2;durP2;ratioP2
75446;SDS011;64024;55.820;37.574;2024-01-11T00:00:34;1.50;;;0.90;;
75446;SDS011;64024;55.820;37.574;2024-01-11T00:03:00;1.15;;;0.80;;
75446;SDS011;64024;55.820;37.574;2024-01-11T00:05:26;1.35;;;0.77;;
75446;SDS011;64024;55.820;37.574;2024-01-11T00:07:51;1.70;;;0.90;;
75446;SDS011;64024;55.820;37.574;2024-01-11T00:10:17;2.13;;;1.02;;
75446;SDS011;64024;55.820;37.574;2024-01-11T00:12:44;1.33;;;0.60;;
75446;SDS011;64024;55.820;37.574;2024-01-11T00:15:09;1.52;;;0.80;;
75446;SDS011;64024;55.820;37.574;2024-01-11T00:17:35;1.65;;;0.80;;
75446;SDS011;64024;55.820;37.574;2024-01-11T00:20:01;1.25;;;0.60;;
75446;SDS011;64024;55.820;37.574;2024-01-11T00:22:29;1.65;;;0.80;;
75446;SDS011;64024;55.820;37.574;2024-01-11T00:24:54;1.38;;;0.70;;
75446;SDS011;64024;55.820;37.574;2024-01-11T00:27:20;1.45;;;0.90;;
75446;SDS011;64024;55.820;37.574;2024-01-11T00:29:46;1.30;;;0.85;;
75446;SDS011;64024;55.820;37.574;2024-01-11T00:32:12;2.17;;;0.73;;
75446;SDS011;64024;55.820;37.574;2024-01-11T00:34:37;1.40;;;0.60;;
75446;SDS011;64024;55.820;37.574;2024-01-11T00:37:03;2.08;;;1.17;;
75446;SDS011;64024;55.820;37.574;2024-01-11T00:39:29;1.45;;;0.77;;
75446;SDS011;64024;55.820;37.574;2024-01-11T00:41:55;1.35;;;0.95;;
75446;SDS011;64024;55.820;37.574;2024-01-11T00:44:21;1.30;;;0.60;;
75446;SDS011;64024;55.820;37.574;2024-01-11T00:46:47;1.95;;;0.85;;
75446;SDS011;64024;55.820;37.574;2024-01-11T00:49:12;1.58;;;0.90;;
75446;SDS011;64024;55.820;37.574;2024-01-11T00:51:38;1.23;;;0.70;;
75446;SDS011;64024;55.820;37.574;2024-01-11T00:54:04;1.60;;;0.70;;
75446;SDS011;64024;55.820;37.574;2024-01-11T00:56:30;1.58;;;0.88;;
75446;SDS011;64024;55.820;37.574;2024-01-11T00:58:56;2.25;;;0.70;;
75446;SDS011;64024;55.820;37.574;2024-01-11T01:01:21;1.42;;;1.00;;
75446;SDS011;64024;55.820;37.574;2024-01-11T01:03:47;1.27;;;0.55;;
75446;SDS011;64024;55.820;37.574;2024-01-11T01:06:13;1.35;;;0.73;;
75446;SDS011;64024;55.820;37.574;2024-01-11T01:08:39;1.27;;;0.73;;
75446;SDS011;64024;55.820;37.574;2024-01-11T01:11:04;1.45;;;0.70;;
75446;SDS011;64024;55.820;37.574;2024-01-11T01:13:30;1.70;;;0.73;;
75446;SDS011;64024;55.820;37.574;2024-01-11T01:15:56;2.65;;;1.20;;
75446;SDS011;64024;55.820;37.574;2024-01-11T01:18:21;1.58;;;0.90;;
75446;SDS011;64024;55.820;37.574;2024-01-11T01:20:47;1.73;;;0.90;;
75446;SDS011;64024;55.820;37.574;2024-01-11T01:23:13;1.35;;;0.90;;
75446;SDS011;64024;55.820;37.574;2024-01-11T01:25:39;1.25;;;0.55;;
75446;SDS011;64024;55.820;37.574;2024-01-11T01:28:05;2.13;;;0.90;;
75446;SDS011;64024;55.820;37.574;2024-01-11T01:30:31;1.30;;;0.70;;
75446;SDS011;64024;55.820;37.574;2024-01-11T01:32:57;1.52;;;0.90;;
75446;SDS011;64024;55.820;37.574;2024-01-11T01:35:23;1.60;;;0.77;;
75446;SDS011;64024;55.820;37.574;2024-01-11T01:37:48;1.33;;;0.80;;
75446;SDS011;64024;55.820;37.574;2024-01-11T01:40:14;1.25;;;0.70;;
75446;SDS011;64024;55.820;37.574;2024-01-11T01:42:43;1.27;;;0.70;;
75446;SDS011;64024;55.820;37.574;2024-01-11T01:45:10;0.80;;;0.50;;
75446;SDS011;64024;55.820;37.574;2024-01-11T01:47:44;1.27;;;0.60;;
75446;SDS011;64024;55.820;37.574;2024-01-11T01:50:10;1.05;;;0.60;;
75446;SDS011;64024;55.820;37.574;2024-01-11T01:52:38;1.40;;;0.70;;
75446;SDS011;64024;55.820;37.574;2024-01-11T01:55:05;1.80;;;0.90;;
75446;SDS011;64024;55.820;37.574;2024-01-11T01:57:35;1.33;;;0.70;;
75446;SDS011;64024;55.820;37.574;2024-01-11T02:00:01;1.98;;;0.88;;
75446;SDS011;64024;55.820;37.574;2024-01-11T02:02:29;1.27;;;0.65;;
75446;SDS011;64024;55.820;37.574;2024-01-11T02:04:58;2.45;;;0.88;;
75446;SDS011;64024;55.820;37.574;2024-01-11T02:07:24;1.85;;;0.77;;
75446;SDS011;64024;55.820;37.574;2024-01-11T02:09:50;0.82;;;0.40;;
75446;SDS011;64024;55.820;37.574;2024-01-11T02:12:17;2.50;;;0.73;;
75446;SDS011;64024;55.820;37.574;2024-01-11T02:14:43;1.23;;;0.45;;
75446;SDS011;64024;55.820;37.574;2024-01-11T02:17:09;1.30;;;0.47;;
75446;SDS011;64024;55.820;37.574;2024-01-11T02:19:35;1.10;;;0.60;;
75446;SDS011;64024;55.820;37.574;2024-01-11T02:22:02;0.88;;;0.50;;
75446;SDS011;64024;55.820;37.574;2024-01-11T02:24:35;0.95;;;0.50;;
75446;SDS011;64024;55.820;37.574;2024-01-11T02:27:01;2.30;;;0.60;;
75446;SDS011;64024;55.820;37.574;2024-01-11T02:29:30;0.57;;;0.40;;
75446;SDS011;64024;55.820;37.574;2024-01-11T02:31:57;1.17;;;0.40;;
75446;SDS011;64024;55.820;37.574;2024-01-11T02:34:28;0.80;;;0.40;;
75446;SDS011;64024;55.820;37.574;2024-01-11T02:36:54;1.38;;;0.40;;
75446;SDS011;64024;55.820;37.574;2024-01-11T02:39:20;0.85;;;0.50;;
75446;SDS011;64024;55.820;37.574;2024-01-11T02:41:50;1.35;;;0.50;;
75446;SDS011;64024;55.820;37.574;2024-01-11T02:44:16;0.73;;;0.40;;
75446;SDS011;64024;55.820;37.574;2024-01-11T02:46:42;0.65;;;0.40;;
75446;SDS011;64024;55.820;37.574;2024-01-11T02:49:08;3.55;;;1.10;;
75446;SDS011;64024;55.820;37.574;2024-01-11T02:51:34;0.73;;;0.30;;
75446;SDS011;64024;55.820;37.574;2024-01-11T02:54:01;0.80;;;0.40;;
75446;SDS011;64024;55.820;37.574;2024-01-11T02:56:26;1.10;;;0.40;;
75446;SDS011;64024;55.820;37.574;2024-01-11T02:58:52;1.05;;;0.60;;
75446;SDS011;64024;55.820;37.574;2024-01-11T03:01:18;1.05;;;0.40;;
75446;SDS011;64024;55.820;37.574;2024-01-11T03:03:44;1.50;;;0.50;;
75446;SDS011;64024;55.820;37.574;2024-01-11T03:06:09;1.35;;;0.35;;
75446;SDS011;64024;55.820;37.574;2024-01-11T03:08:36;2.03;;;0.63;;
75446;SDS011;64024;55.820;37.574;2024-01-11T03:11:01;3.20;;;1.10;;
75446;SDS011;64024;55.820;37.574;2024-01-11T03:13:27;1.92;;;0.60;;
75446;SDS011;64024;55.820;37.574;2024-01-11T03:15:53;1.33;;;0.60;;
75446;SDS011;64024;55.820;37.574;2024-01-11T03:18:19;2.97;;;1.63;;
75446;SDS011;64024;55.820;37.574;2024-01-11T03:20:45;1.60;;;0.60;;
75446;SDS011;64024;55.820;37.574;2024-01-11T03:23:11;0.90;;;0.50;;
75446;SDS011;64024;55.820;37.574;2024-01-11T03:25:37;1.30;;;0.65;;
75446;SDS011;64024;55.820;37.574;2024-01-11T03:28:03;3.30;;;0.75;;
75446;SDS011;64024;55.820;37.574;2024-01-11T03:30:29;0.45;;;0.25;;
75446;SDS011;64024;55.820;37.574;2024-01-11T03:32:55;0.90;;;0.50;;
75446;SDS011;64024;55.820;37.574;2024-01-11T03:35:21;1.55;;;0.60;;
75446;SDS011;64024;55.820;37.574;2024-01-11T03:37:48;1.40;;;0.88;;
75446;SDS011;64024;55.820;37.574;2024-01-11T03:40:14;0.47;;;0.38;;
75446;SDS011;64024;55.820;37.574;2024-01-11T03:42:41;2.63;;;0.63;;
75446;SDS011;64024;55.820;37.574;2024-01-11T03:45:08;0.98;;;0.40;;
75446;SDS011;64024;55.820;37.574;2024-01-11T03:47:34;0.90;;;0.40;;
75446;SDS011;64024;55.820;37.574;2024-01-11T03:50:00;1.40;;;0.50;;
75446;SDS011;64024;55.820;37.574;2024-01-11T03:52:26;1.02;;;0.45;;
75446;SDS011;64024;55.820;37.574;2024-01-11T03:54:51;2.10;;;0.68;;
75446;SDS011;64024;55.820;37.574;2024-01-11T03:57:17;0.98;;;0.60;;
75446;SDS011;64024;55.820;37.574;2024-01-11T03:59:43;1.00;;;0.40;;
75446;SDS011;64024;55.820;37.574;2024-01-11T04:02:10;2.00;;;0.73;;
75446;SDS011;64024;55.820;37.574;2024-01-11T04:04:36;0.47;;;0.20;;
75446;SDS011;64024;55.820;37.574;2024-01-11T04:07:02;1.13;;;0.47;;
75446;SDS011;64024;55.820;37.574;2024-01-11T04:09:28;1.73;;;0.47;;
75446;SDS011;64024;55.820;37.574;2024-01-11T04:11:53;1.20;;;0.52;;
75446;SDS011;64024;55.820;37.574;2024-01-11T04:14:19;1.55;;;0.50;;
75446;SDS011;64024;55.820;37.574;2024-01-11T04:16:45;2.92;;;0.50;;
75446;SDS011;64024;55.820;37.574;2024-01-11T04:19:10;0.57;;;0.30;;
75446;SDS011;64024;55.820;37.574;2024-01-11T04:21:36;0.90;;;0.40;;
75446;SDS011;64024;55.820;37.574;2024-01-11T04:24:05;1.58;;;0.35;;
75446;SDS011;64024;55.820;37.574;2024-01-11T04:26:35;1.20;;;0.30;;
75446;SDS011;64024;55.820;37.574;2024-01-11T04:29:01;0.70;;;0.30;;
75446;SDS011;64024;55.820;37.574;2024-01-11T04:31:27;0.80;;;0.50;;
75446;SDS011;64024;55.820;37.574;2024-01-11T04:33:53;1.05;;;0.32;;
75446;SDS011;64024;55.820;37.574;2024-01-11T04:36:19;3.72;;;0.50;;
75446;SDS011;64024;55.820;37.574;2024-01-11T04:38:45;0.57;;;0.22;;
75446;SDS011;64024;55.820;37.574;2024-01-11T04:41:11;1.05;;;0.50;;
75446;SDS011;64024;55.820;37.574;2024-01-11T04:43:38;0.77;;;0.30;;
75446;SDS011;64024;55.820;37.574;2024-01-11T04:46:17;2.58;;;0.57;;
75446;SDS011;64024;55.820;37.574;2024-01-11T04:48:47;1.25;;;0.32;;
75446;SDS011;64024;55.820;37.574;2024-01-11T04:51:17;1.33;;;0.38;;
75446;SDS011;64024;55.820;37.574;2024-01-11T04:53:44;1.05;;;0.40;;
75446;SDS011;64024;55.820;37.574;2024-01-11T04:56:12;1.75;;;0.70;;
75446;SDS011;64024;55.820;37.574;2024-01-11T04:58:40;0.65;;;0.30;;
75446;SDS011;64024;55.820;37.574;2024-01-11T05:01:07;1.52;;;0.22;;
75446;SDS011;64024;55.820;37.574;2024-01-11T05:03:44;0.52;;;0.25;;
75446;SDS011;64024;55.820;37.574;2024-01-11T05:06:17;1.10;;;0.40;;
75446;SDS011;64024;55.820;37.574;2024-01-11T05:08:46;0.40;;;0.30;;
75446;SDS011;64024;55.820;37.574;2024-01-11T05:11:16;0.95;;;0.38;;
75446;SDS011;64024;55.820;37.574;2024-01-11T05:13:42;1.00;;;0.30;;
75446;SDS011;64024;55.820;37.574;2024-01-11T05:16:20;0.40;;;0.20;;
75446;SDS011;64024;55.820;37.574;2024-01-11T05:18:47;0.47;;;0.20;;
75446;SDS011;64024;55.820;37.574;2024-01-11T05:21:14;0.73;;;0.20;;
75446;SDS011;64024;55.820;37.574;2024-01-11T05:23:40;0.57;;;0.20;;
75446;SDS011;64024;55.820;37.574;2024-01-11T05:26:10;1.50;;;0.50;;
75446;SDS011;64024;55.820;37.574;2024-01-11T05:28:38;0.25;;;0.10;;
75446;SDS011;64024;55.820;37.574;2024-01-11T05:31:10;0.82;;;0.55;;
75446;SDS011;64024;55.820;37.574;2024-01-11T05:33:37;0.85;;;0.30;;
75446;SDS011;64024;55.820;37.574;2024-01-11T05:36:04;0.38;;;0.20;;
75446;SDS011;64024;55.820;37.574;2024-01-11T05:38:30;0.43;;;0.10;;
75446;SDS011;64024;55.820;37.574;2024-01-11T05:40:56;0.22;;;0.10;;
75446;SDS011;64024;55.820;37.574;2024-01-11T05:43:23;0.43;;;0.20;;
75446;SDS011;64024;55.820;37.574;2024-01-11T05:45:49;0.95;;;0.20;;
75446;SDS011;64024;55.820;37.574;2024-01-11T05:48:16;0.90;;;0.63;;
75446;SDS011;64024;55.820;37.574;2024-01-11T05:50:42;0.65;;;0.20;;
75446;SDS011;64024;55.820;37.574;2024-01-11T05:53:09;1.23;;;0.40;;
75446;SDS011;64024;55.820;37.574;2024-01-11T05:55:36;0.50;;;0.20;;
75446;SDS011;64024;55.820;37.574;2024-01-11T05:58:02;0.20;;;0.10;;
75446;SDS011;64024;55.820;37.574;2024-01-11T06:00:29;0.95;;;0.20;;
75446;SDS011;64024;55.820;37.574;2024-01-11T06:02:54;0.95;;;0.30;;
75446;SDS011;64024;55.820;37.574;2024-01-11T06:05:20;0.70;;;0.15;;
75446;SDS011;64024;55.820;37.574;2024-01-11T06:07:46;0.35;;;0.20;;
75446;SDS011;64024;55.820;37.574;2024-01-11T06:10:13;0.40;;;0.20;;
75446;SDS011;64024;55.820;37.574;2024-01-11T06:12:40;0.20;;;0.10;;
75446;SDS011;64024;55.820;37.574;2024-01-11T06:15:06;0.28;;;0.10;;
75446;SDS011;64024;55.820;37.574;2024-01-11T06:17:32;0.60;;;0.13;;
75446;SDS011;64024;55.820;37.574;2024-01-11T06:19:58;0.22;;;0.10;;
75446;SDS011;64024;55.820;37.574;2024-01-11T06:22:24;0.75;;;0.20;;
75446;SDS011;64024;55.820;37.574;2024-01-11T06:24:50;0.57;;;0.20;;
75446;SDS011;64024;55.820;37.574;2024-01-11T06:27:16;0.20;;;0.10;;
75446;SDS011;64024;55.820;37.574;2024-01-11T06:29:42;0.55;;;0.20;;
75446;SDS011;64024;55.820;37.574;2024-01-11T06:32:08;0.52;;;0.10;;
75446;SDS011;64024;55.820;37.574;2024-01-11T06:34:34;0.75;;;0.10;;
75446;SDS011;64024;55.820;37.574;2024-01-11T06:37:06;0.63;;;0.30;;
75446;SDS011;64024;55.820;37.574;2024-01-11T06:39:32;0.63;;;0.20;;
75446;SDS011;64024;55.820;37.574;2024-01-11T06:41:58;0.57;;;0.20;;
75446;SDS011;64024;55.820;37.574;2024-01-11T06:44:24;0.30;;;0.10;;
75446;SDS011;64024;55.820;37.574;2024-01-11T06:46:50;0.28;;;0.13;;
75446;SDS011;64024;55.820;37.574;2024-01-11T06:49:16;0.47;;;0.20;;
75446;SDS011;64024;55.820;37.574;2024-01-11T06:51:42;0.30;;;0.20;;
75446;SDS011;64024;55.820;37.574;2024-01-11T06:54:08;1.63;;;0.10;;
75446;SDS011;64024;55.820;37.574;2024-01-11T06:56:34;0.10;;;0.10;;
75446;SDS011;64024;55.820;37.574;2024-01-11T06:59:01;0.65;;;0.28;;
75446;SDS011;64024;55.820;37.574;2024-01-11T07:01:27;0.10;;;0.10;;
75446;SDS011;64024;55.820;37.574;2024-01-11T07:03:53;0.50;;;0.20;;
75446;SDS011;64024;55.820;37.574;2024-01-11T07:06:19;0.50;;;0.13;;
75446;SDS011;64024;55.820;37.574;2024-01-11T07:08:45;0.30;;;0.20;;
75446;SDS011;64024;55.820;37.574;2024-01-11T07:11:11;0.40;;;0.30;;
75446;SDS011;64024;55.820;37.574;2024-01-11T07:13:37;0.40;;;0.20;;
75446;SDS011;64024;55.820;37.574;2024-01-11T07:16:03;0.63;;;0.13;;
75446;SDS011;64024;55.820;37.574;2024-01-11T07:18:29;0.20;;;0.10;;
75446;SDS011;64024;55.820;37.574;2024-01-11T07:20:59;0.30;;;0.10;;
75446;SDS011;64024;55.820;37.574;2024-01-11T07:23:25;0.57;;;0.15;;
75446;SDS011;64024;55.820;37.574;2024-01-11T07:25:52;0.32;;;0.22;;
75446;SDS011;64024;55.820;37.574;2024-01-11T07:28:17;0.43;;;0.15;;
75446;SDS011;64024;55.820;37.574;2024-01-11T07:30:45;0.35;;;0.22;;
75446;SDS011;64024;55.820;37.574;2024-01-11T07:33:14;0.52;;;0.20;;
75446;SDS011;64024;55.820;37.574;2024-01-11T07:35:40;0.80;;;0.20;;
75446;SDS011;64024;55.820;37.574;2024-01-11T07:38:06;0.10;;;0.10;;
75446;SDS011;64024;55.820;37.574;2024-01-11T07:40:31;0.73;;;0.32;;
75446;SDS011;64024;55.820;37.574;2024-01-11T07:42:57;0.43;;;0.17;;
75446;SDS011;64024;55.820;37.574;2024-01-11T07:45:23;0.43;;;0.20;;
75446;SDS011;64024;55.820;37.574;2024-01-11T07:47:49;0.28;;;0.13;;
75446;SDS011;64024;55.820;37.574;2024-01-11T07:50:15;0.73;;;0.30;;
75446;SDS011;64024;55.820;37.574;2024-01-11T07:52:41;0.57;;;0.50;;
75446;SDS011;64024;55.820;37.574;2024-01-11T07:55:08;0.40;;;0.22;;
75446;SDS011;64024;55.820;37.574;2024-01-11T07:57:37;0.25;;;0.13;;
75446;SDS011;64024;55.820;37.574;2024-01-11T08:00:04;0.28;;;0.10;;
75446;SDS011;64024;55.820;37.574;2024-01-11T08:02:32;0.60;;;0.22;;
75446;SDS011;64024;55.820;37.574;2024-01-11T08:04:58;0.85;;;0.20;;
75446;SDS011;64024;55.820;37.574;2024-01-11T08:07:28;1.30;;;0.20;;
75446;SDS011;64024;55.820;37.574;2024-01-11T08:09:54;0.22;;;0.10;;
75446;SDS011;64024;55.820;37.574;2024-01-11T08:12:20;0.32;;;0.17;;
75446;SDS011;64024;55.820;37.574;2024-01-11T08:14:46;0.20;;;0.10;;
75446;SDS011;64024;55.820;37.574;2024-01-11T08:17:13;0.52;;;0.20;;
75446;SDS011;64024;55.820;37.574;2024-01-11T08:19:39;0.73;;;0.25;;
75446;SDS011;64024;55.820;37.574;2024-01-11T08:22:06;0.88;;;0.30;;
75446;SDS011;64024;55.820;37.574;2024-01-11T08:24:32;0.88;;;0.40;;
75446;SDS011;64024;55.820;37.574;2024-01-11T08:27:00;0.70;;;0.40;;
75446;SDS011;64024;55.820;37.574;2024-01-11T08:29:26;0.40;;;0.20;;
75446;SDS011;64024;55.820;37.574;2024-01-11T08:31:53;0.57;;;0.22;;
75446;SDS011;64024;55.820;37.574;2024-01-11T08:34:22;0.75;;;0.40;;
75446;SDS011;64024;55.820;37.574;2024-01-11T08:36:48;2.17;;;0.60;;
75446;SDS011;64024;55.820;37.574;2024-01-11T08:39:14;0.52;;;0.30;;
75446;SDS011;64024;55.820;37.574;2024-01-11T08:41:40;1.95;;;0.63;;
75446;SDS011;64024;55.820;37.574;2024-01-11T08:44:07;2.60;;;0.90;;
75446;SDS011;64024;55.820;37.574;2024-01-11T08:46:33;1.25;;;0.40;;
75446;SDS011;64024;55.820;37.574;2024-01-11T08:49:00;1.10;;;0.52;;
75446;SDS011;64024;55.820;37.574;2024-01-11T08:51:28;1.85;;;0.80;;
75446;SDS011;64024;55.820;37.574;2024-01-11T08:53:55;1.10;;;0.50;;
75446;SDS011;64024;55.820;37.574;2024-01-11T08:56:21;1.52;;;0.82;;
75446;SDS011;64024;55.820;37.574;2024-01-11T08:58:47;1.60;;;0.65;;
75446;SDS011;64024;55.820;37.574;2024-01-11T09:01:14;5.85;;;1.83;;
75446;SDS011;64024;55.820;37.574;2024-01-11T09:03:41;2.08;;;1.50;;
75446;SDS011;64024;55.820;37.574;2024-01-11T09:06:07;1.42;;;0.70;;
75446;SDS011;64024;55.820;37.574;2024-01-11T09:08:33;1.08;;;0.80;;
75446;SDS011;64024;55.820;37.574;2024-01-11T09:11:02;0.90;;;0.60;;
75446;SDS011;64024;55.820;37.574;2024-01-11T09:13:28;0.68;;;0.40;;
75446;SDS011;64024;55.820;37.574;2024-01-11T09:15:55;2.35;;;0.73;;
75446;SDS011;64024;55.820;37.574;2024-01-11T09:18:21;1.08;;;0.30;;
75446;SDS011;64024;55.820;37.574;2024-01-11T09:20:48;0.70;;;0.20;;
75446;SDS011;64024;55.820;37.574;2024-01-11T09:23:14;4.40;;;0.60;;
75446;SDS011;64024;55.820;37.574;2024-01-11T09:25:41;2.15;;;0.40;;
75446;SDS011;64024;55.820;37.574;2024-01-11T09:28:07;0.45;;;0.25;;
75446;SDS011;64024;55.820;37.574;2024-01-11T09:30:34;3.15;;;0.50;;
75446;SDS011;64024;55.820;37.574;2024-01-11T09:33:00;0.75;;;0.32;;
75446;SDS011;64024;55.820;37.574;2024-01-11T09:35:26;4.53;;;0.40;;
75446;SDS011;64024;55.820;37.574;2024-01-11T09:37:52;1.73;;;0.30;;
75446;SDS011;64024;55.820;37.574;2024-01-11T09:40:18;0.68;;;0.30;;
75446;SDS011;64024;55.820;37.574;2024-01-11T09:42:44;1.00;;;0.40;;
75446;SDS011;64024;55.820;37.574;2024-01-11T09:45:12;0.80;;;0.50;;
75446;SDS011;64024;55.820;37.574;2024-01-11T09:47:41;0.65;;;0.30;;
75446;SDS011;64024;55.820;37.574;2024-01-11T09:50:07;0.70;;;0.20;;
75446;SDS011;64024;55.820;37.574;2024-01-11T09:52:33;0.82;;;0.20;;
75446;SDS011;64024;55.820;37.574;2024-01-11T09:55:00;3.80;;;0.55;;
75446;SDS011;64024;55.820;37.574;2024-01-11T09:57:28;1.20;;;0.40;;
75446;SDS011;64024;55.820;37.574;2024-01-11T09:59:56;0.40;;;0.20;;
75446;SDS011;64024;55.820;37.574;2024-01-11T10:02:23;0.80;;;0.35;;
75446;SDS011;64024;55.820;37.574;2024-01-11T10:04:51;0.57;;;0.20;;
75446;SDS011;64024;55.820;37.574;2024-01-11T10:07:18;0.93;;;0.52;;
75446;SDS011;64024;55.820;37.574;2024-01-11T10:09:47;1.27;;;0.60;;
75446;SDS011;64024;55.820;37.574;2024-01-11T10:12:13;1.48;;;0.57;;
75446;SDS011;64024;55.820;37.574;2024-01-11T10:17:06;1.80;;;0.75;;
75446;SDS011;64024;55.820;37.574;2024-01-11T10:19:32;2.65;;;1.10;;
75446;SDS011;64024;55.820;37.574;2024-01-11T10:21:58;2.33;;;0.90;;
75446;SDS011;64024;55.820;37.574;2024-01-11T10:24:25;1.60;;;0.70;;
75446;SDS011;64024;55.820;37.574;2024-01-11T10:26:55;2.38;;;0.80;;
75446;SDS011;64024;55.820;37.574;2024-01-11T10:29:22;2.35;;;0.90;;
75446;SDS011;64024;55.820;37.574;2024-01-11T10:31:49;2.45;;;1.20;;
75446;SDS011;64024;55.820;37.574;2024-01-11T10:34:16;2.40;;;0.95;;
75446;SDS011;64024;55.820;37.574;2024-01-11T10:36:42;2.70;;;1.48;;
75446;SDS011;64024;55.820;37.574;2024-01-11T10:39:08;4.43;;;2.13;;
75446;SDS011;64024;55.820;37.574;2024-01-11T10:41:40;4.25;;;1.90;;
75446;SDS011;64024;55.820;37.574;2024-01-11T10:44:20;4.18;;;2.10;;
75446;SDS011;64024;55.820;37.574;2024-01-11T10:46:47;6.63;;;1.83;;
75446;SDS011;64024;55.820;37.574;2024-01-11T10:49:16;4.18;;;2.03;;
75446;SDS011;64024;55.820;37.574;2024-01-11T10:51:49;4.45;;;1.70;;
75446;SDS011;64024;55.820;37.574;2024-01-11T10:54:24;3.63;;;1.23;;
75446;SDS011;64024;55.820;37.574;2024-01-11T10:56:51;4.22;;;1.60;;
75446;SDS011;64024;55.820;37.574;2024-01-11T10:59:18;3.10;;;1.50;;
75446;SDS011;64024;55.820;37.574;2024-01-11T11:01:51;3.92;;;1.20;;
75446;SDS011;64024;55.820;37.574;2024-01-11T11:04:19;3.13;;;0.90;;
75446;SDS011;64024;55.820;37.574;2024-01-11T11:06:49;3.85;;;1.52;;
75446;SDS011;64024;55.820;37.574;2024-01-11T11:09:16;2.35;;;1.27;;
75446;SDS011;64024;55.820;37.574;2024-01-11T11:11:44;3.45;;;1.83;;
75446;SDS011;64024;55.820;37.574;2024-01-11T11:14:13;3.78;;;1.27;;
75446;SDS011;64024;55.820;37.574;2024-01-11T11:16:40;4.10;;;1.55;;
75446;SDS011;64024;55.820;37.574;2024-01-11T11:19:07;5.60;;;1.17;;
75446;SDS011;64024;55.820;37.574;2024-01-11T11:21:43;3.35;;;1.20;;
75446;SDS011;64024;55.820;37.574;2024-01-11T11:24:10;3.35;;;0.93;;
75446;SDS011;64024;55.820;37.574;2024-01-11T11:26:40;2.05;;;0.80;;
75446;SDS011;64024;55.820;37.574;2024-01-11T11:29:05;2.38;;;0.75;;
75446;SDS011;64024;55.820;37.574;2024-01-11T11:31:38;1.63;;;0.50;;
75446;SDS011;64024;55.820;37.574;2024-01-11T11:34:16;2.50;;;0.98;;
75446;SDS011;64024;55.820;37.574;2024-01-11T11:36:48;1.75;;;0.73;;
75446;SDS011;64024;55.820;37.574;2024-01-11T11:39:21;3.88;;;0.88;;
75446;SDS011;64024;55.820;37.574;2024-01-11T11:41:48;3.05;;;0.90;;
75446;SDS011;64024;55.820;37.574;2024-01-11T11:44:14;1.20;;;0.60;;
75446;SDS011;64024;55.820;37.574;2024-01-11T11:46:41;1.58;;;0.60;;
75446;SDS011;64024;55.820;37.574;2024-01-11T11:49:09;1.67;;;0.85;;
75446;SDS011;64024;55.820;37.574;2024-01-11T11:51:35;1.55;;;0.50;;
75446;SDS011;64024;55.820;37.574;2024-01-11T11:54:06;2.40;;;0.80;;
75446;SDS011;64024;55.820;37.574;2024-01-11T11:56:35;1.40;;;0.60;;
75446;SDS011;64024;55.820;37.574;2024-01-11T11:59:02;1.40;;;0.73;;
75446;SDS011;64024;55.820;37.574;2024-01-11T12:01:28;2.22;;;0.75;;
75446;SDS011;64024;55.820;37.574;2024-01-11T12:03:56;1.50;;;0.70;;
75446;SDS011;64024;55.820;37.574;2024-01-11T12:06:23;1.73;;;0.88;;
75446;SDS011;64024;55.820;37.574;2024-01-11T12:08:50;1.55;;;0.60;;
75446;SDS011;64024;55.820;37.574;2024-01-11T12:11:18;1.58;;;0.55;;
75446;SDS011;64024;55.820;37.574;2024-01-11T12:13:48;0.77;;;0.55;;
75446;SDS011;64024;55.820;37.574;2024-01-11T12:16:15;2.08;;;0.30;;
75446;SDS011;64024;55.820;37.574;2024-01-11T12:18:41;1.17;;;0.50;;
75446;SDS011;64024;55.820;37.574;2024-01-11T12:21:07;0.77;;;0.20;;
75446;SDS011;64024;55.820;37.574;2024-01-11T12:23:34;1.20;;;0.40;;
75446;SDS011;64024;55.820;37.574;2024-01-11T12:26:03;1.15;;;0.50;;
75446;SDS011;64024;55.820;37.574;2024-01-11T12:28:33;2.95;;;0.77;;
75446;SDS011;64024;55.820;37.574;2024-01-11T12:30:59;0.82;;;0.45;;
75446;SDS011;64024;55.820;37.574;2024-01-11T12:33:26;2.55;;;0.40;;
75446;SDS011;64024;55.820;37.574;2024-01-11T12:35:53;0.85;;;0.32;;
75446;SDS011;64024;55.820;37.574;2024-01-11T12:38:19;1.02;;;0.65;;
75446;SDS011;64024;55.820;37.574;2024-01-11T12:40:45;0.95;;;0.40;;
75446;SDS011;64024;55.820;37.574;2024-01-11T12:43:12;0.98;;;0.70;;
75446;SDS011;64024;55.820;37.574;2024-01-11T12:45:39;0.63;;;0.30;;
75446;SDS011;64024;55.820;37.574;2024-01-11T12:48:07;0.85;;;0.50;;
75446;SDS011;64024;55.820;37.574;2024-01-11T12:50:34;1.35;;;0.52;;
75446;SDS011;64024;55.820;37.574;2024-01-11T12:53:09;0.70;;;0.32;;
75446;SDS011;64024;55.820;37.574;2024-01-11T12:55:48;0.82;;;0.40;;
75446;SDS011;64024;55.820;37.574;2024-01-11T12:58:28;0.65;;;0.40;;
75446;SDS011;64024;55.820;37.574;2024-01-11T13:00:54;2.15;;;0.40;;
75446;SDS011;64024;55.820;37.574;2024-01-11T13:03:20;1.10;;;0.68;;
75446;SDS011;64024;55.820;37.574;2024-01-11T13:05:46;1.67;;;0.55;;
75446;SDS011;64024;55.820;37.574;2024-01-11T13:08:13;1.52;;;0.35;;
75446;SDS011;64024;55.820;37.574;2024-01-11T13:10:38;1.13;;;0.50;;
75446;SDS011;64024;55.820;37.574;2024-01-11T13:13:05;0.73;;;0.40;;
75446;SDS011;64024;55.820;37.574;2024-01-11T13:15:31;0.68;;;0.38;;
75446;SDS011;64024;55.820;37.574;2024-01-11T13:18:00;1.42;;;0.50;;
75446;SDS011;64024;55.820;37.574;2024-01-11T13:20:27;5.68;;;0.73;;
75446;SDS011;64024;55.820;37.574;2024-01-11T13:25:44;1.48;;;0.57;;
75446;SDS011;64024;55.820;37.574;2024-01-11T13:28:11;2.17;;;0.40;;
75446;SDS011;64024;55.820;37.574;2024-01-11T13:30:40;1.13;;;0.47;;
75446;SDS011;64024;55.820;37.574;2024-01-11T13:33:07;0.88;;;0.43;;
75446;SDS011;64024;55.820;37.574;2024-01-11T13:35:34;0.73;;;0.47;;
75446;SDS011;64024;55.820;37.574;2024-01-11T13:38:00;0.88;;;0.35;;
75446;SDS011;64024;55.820;37.574;2024-01-11T13:40:27;0.88;;;0.40;;
75446;SDS011;64024;55.820;37.574;2024-01-11T13:42:54;1.33;;;0.50;;
75446;SDS011;64024;55.820;37.574;2024-01-11T13:45:21;0.70;;;0.50;;
75446;SDS011;64024;55.820;37.574;2024-01-11T13:47:48;0.75;;;0.35;;
75446;SDS011;64024;55.820;37.574;2024-01-11T13:50:14;1.25;;;0.40;;
75446;SDS011;64024;55.820;37.574;2024-01-11T13:52:40;0.80;;;0.38;;
75446;SDS011;64024;55.820;37.574;2024-01-11T13:55:08;0.70;;;0.30;;
75446;SDS011;64024;55.820;37.574;2024-01-11T13:57:37;1.75;;;0.73;;
75446;SDS011;64024;55.820;37.574;2024-01-11T14:00:04;1.00;;;0.40;;
75446;SDS011;64024;55.820;37.574;2024-01-11T14:02:31;0.70;;;0.40;;
75446;SDS011;64024;55.820;37.574;2024-01-11T14:04:58;1.00;;;0.47;;
75446;SDS011;64024;55.820;37.574;2024-01-11T14:07:24;0.70;;;0.30;;
75446;SDS011;64024;55.820;37.574;2024-01-11T14:09:51;0.90;;;0.50;;
75446;SDS011;64024;55.820;37.574;2024-01-11T14:12:17;0.50;;;0.38;;
75446;SDS011;64024;55.820;37.574;2024-01-11T14:14:43;0.65;;;0.40;;
75446;SDS011;64024;55.820;37.574;2024-01-11T14:17:09;0.85;;;0.55;;
75446;SDS011;64024;55.820;37.574;2024-01-11T14:19:35;0.70;;;0.25;;
75446;SDS011;64024;55.820;37.574;2024-01-11T14:22:01;0.98;;;0.40;;
75446;SDS011;64024;55.820;37.574;2024-01-11T14:24:26;1.27;;;0.40;;
75446;SDS011;64024;55.820;37.574;2024-01-11T14:26:53;0.90;;;0.40;;
75446;SDS011;64024;55.820;37.574;2024-01-11T14:29:19;1.27;;;0.47;;
75446;SDS011;64024;55.820;37.574;2024-01-11T14:31:45;0.98;;;0.50;;
75446;SDS011;64024;55.820;37.574;2024-01-11T14:34:11;1.15;;;0.40;;
75446;SDS011;64024;55.820;37.574;2024-01-11T14:36:36;0.93;;;0.50;;